Time;durP1;ratioP1;P1;durP2;ratioP2;P2;SDS_P1;SDS_P2;PMS_P1;PMS_P2;Temp;Humidity;BMP_temperature;BMP_pressure;BME280_temperature;BME280_humidity;BME280_pressure;Samples;Min_cycle;Max_cycle;Signal;HPM_P1;HPM_P2
2021/03/31 00:01:53;;;;;;;11.50;7.82;;;16.80;59.20;;;;;;5090058;28;20026;-80
2021/03/31 00:04:18;;;;;;;11.60;7.28;;;16.80;59.40;;;;;;5088724;28;20111;-79
2021/03/31 00:06:44;;;;;;;11.85;7.97;;;16.70;59.30;;;;;;5070276;28;20166;-80
2021/03/31 00:09:10;;;;;;;13.10;7.72;;;16.70;59.40;;;;;;5087839;28;20468;-79
2021/03/31 00:11:36;;;;;;;10.95;7.20;;;16.70;59.40;;;;;;5080063;28;20039;-79
2021/03/31 00:14:02;;;;;;;10.75;7.30;;;16.60;59.40;;;;;;5057022;28;20024;-80
2021/03/31 00:16:28;;;;;;;13.15;8.07;;;16.60;59.50;;;;;;5073288;28;20111;-79
2021/03/31 00:18:54;;;;;;;12.13;7.30;;;16.50;59.50;;;;;;5073392;28;20139;-80
2021/03/31 00:21:20;;;;;;;12.95;7.47;;;16.50;59.50;;;;;;5090916;28;20032;-80
2021/03/31 00:23:45;;;;;;;10.80;7.07;;;16.50;59.60;;;;;;5066768;28;20025;-79
2021/03/31 00:26:11;;;;;;;12.90;8.18;;;16.40;59.60;;;;;;5101111;28;20028;-80
2021/03/31 00:28:37;;;;;;;11.73;8.02;;;16.40;59.60;;;;;;5072863;28;20032;-80
2021/03/31 00:31:03;;;;;;;12.32;7.60;;;16.30;59.60;;;;;;5068745;28;20040;-80
2021/03/31 00:33:28;;;;;;;11.05;6.90;;;16.40;59.70;;;;;;5090127;28;20036;-80
2021/03/31 00:35:54;;;;;;;12.82;7.95;;;16.30;59.70;;;;;;5045805;28;20097;-80
2021/03/31 00:38:20;;;;;;;13.05;8.32;;;16.30;59.70;;;;;;5067354;28;20514;-79
2021/03/31 00:40:49;;;;;;;12.07;7.75;;;16.30;59.80;;;;;;5073576;28;20043;-80
2021/03/31 00:43:15;;;;;;;11.80;7.70;;;16.20;59.70;;;;;;5090042;28;20016;-80
2021/03/31 00:45:42;;;;;;;11.82;7.53;;;16.10;59.80;;;;;;5056394;28;20119;-80
2021/03/31 00:48:13;;;;;;;12.27;8.27;;;16.10;59.80;;;;;;5068877;28;20499;-80
2021/03/31 00:50:40;;;;;;;10.55;7.22;;;16.10;59.90;;;;;;5073227;28;20044;-79
2021/03/31 00:53:06;;;;;;;11.25;7.28;;;16.10;59.90;;;;;;5089654;28;20503;-80
2021/03/31 00:55:32;;;;;;;11.27;7.07;;;16.00;59.90;;;;;;5073321;28;20044;-80
2021/03/31 00:57:58;;;;;;;11.38;7.10;;;16.00;59.90;;;;;;5089316;28;20032;-80
2021/03/31 01:00:25;;;;;;;10.68;7.18;;;16.00;60.00;;;;;;5073624;28;20499;-82
2021/03/31 01:02:51;;;;;;;12.20;8.35;;;15.90;60.00;;;;;;5088964;28;20103;-80
2021/03/31 01:05:19;;;;;;;12.48;7.97;;;15.90;60.00;;;;;;5081852;28;20505;-80
2021/03/31 01:07:46;;;;;;;10.85;7.03;;;15.90;60.00;;;;;;5073007;28;20024;-80
2021/03/31 01:10:14;;;;;;;12.40;7.70;;;15.80;60.00;;;;;;5077225;28;20096;-80
2021/03/31 01:13:28;;;;;;;11.25;7.57;;;15.80;60.00;;;;;;5067744;28;20084;-80
2021/03/31 01:16:16;;;;;;;11.32;7.30;;;15.80;60.20;;;;;;5066221;28;20048;-80
2021/03/31 01:18:44;;;;;;;10.80;6.93;;;15.70;60.10;;;;;;5091423;28;20534;-79
2021/03/31 01:21:29;;;;;;;11.57;7.95;;;15.70;60.10;;;;;;5094157;28;20028;-80
2021/03/31 01:24:28;;;;;;;12.20;7.70;;;15.60;60.20;;;;;;5075363;28;20054;-80
2021/03/31 01:27:08;;;;;;;10.88;7.90;;;15.60;60.30;;;;;;5080424;28;20280;-79
2021/03/31 01:29:49;;;;;;;12.02;7.65;;;15.60;60.30;;;;;;5092563;28;20016;-79
2021/03/31 01:32:33;;;;;;;10.30;7.22;;;15.50;60.40;;;;;;5095137;28;20032;-80
2021/03/31 01:35:08;;;;;;;11.57;7.70;;;15.40;60.50;;;;;;5094133;28;20392;-80
2021/03/31 01:37:47;;;;;;;10.43;6.80;;;15.40;60.40;;;;;;5076345;28;20028;-78
2021/03/31 01:40:16;;;;;;;11.60;7.18;;;15.40;60.50;;;;;;5094374;28;20028;-80
2021/03/31 01:42:48;;;;;;;9.93;6.88;;;15.40;60.60;;;;;;5092030;28;20066;-80
2021/03/31 01:45:16;;;;;;;10.90;7.28;;;15.40;60.60;;;;;;5093344;28;20098;-79
2021/03/31 01:47:46;;;;;;;10.23;6.80;;;15.40;60.70;;;;;;5058974;28;20035;-79
2021/03/31 01:50:13;;;;;;;13.45;7.50;;;15.30;60.70;;;;;;5075562;28;20044;-80
2021/03/31 01:52:40;;;;;;;11.30;7.63;;;15.20;60.60;;;;;;5093492;28;20028;-80
2021/03/31 01:55:07;;;;;;;11.68;7.43;;;15.20;60.60;;;;;;5059202;28;20507;-79
2021/03/31 01:57:33;;;;;;;11.43;7.43;;;15.20;60.70;;;;;;5059003;28;20067;-80
2021/03/31 02:00:00;;;;;;;11.05;7.47;;;15.20;60.70;;;;;;5074738;28;20028;-80
2021/03/31 02:02:26;;;;;;;11.02;7.47;;;15.10;60.70;;;;;;5035993;28;20028;-80
2021/03/31 02:04:53;;;;;;;10.02;7.13;;;15.10;60.70;;;;;;5079101;28;20028;-80
2021/03/31 02:07:21;;;;;;;10.55;7.45;;;15.10;60.70;;;;;;5077790;28;20042;-80
2021/03/31 02:09:50;;;;;;;10.50;7.03;;;15.10;60.80;;;;;;5070944;28;20460;-80
2021/03/31 02:12:19;;;;;;;11.05;7.55;;;15.00;60.70;;;;;;5047866;28;20536;-80
2021/03/31 02:14:46;;;;;;;11.57;7.05;;;15.00;60.80;;;;;;5074923;28;20025;-80
2021/03/31 02:17:26;;;;;;;11.90;7.90;;;14.90;60.70;;;;;;5069759;28;20102;-80
2021/03/31 02:19:53;;;;;;;12.07;7.72;;;14.90;60.80;;;;;;5096601;28;20024;-79
2021/03/31 02:22:22;;;;;;;10.88;7.43;;;14.90;60.80;;;;;;5092039;28;20062;-80
2021/03/31 02:24:49;;;;;;;10.73;7.20;;;14.90;60.80;;;;;;5074782;28;20020;-79
2021/03/31 02:27:16;;;;;;;12.35;7.63;;;14.80;60.80;;;;;;5056673;28;20024;-80
2021/03/31 02:29:46;;;;;;;11.02;7.47;;;14.80;60.90;;;;;;5093936;28;20024;-80
2021/03/31 02:32:14;;;;;;;11.70;7.50;;;14.80;60.80;;;;;;5091261;28;20144;-80
2021/03/31 02:34:41;;;;;;;11.07;7.78;;;14.70;60.90;;;;;;5092679;28;20020;-80
2021/03/31 02:37:07;;;;;;;11.20;7.68;;;14.70;60.90;;;;;;5051281;28;20028;-80
2021/03/31 02:39:37;;;;;;;12.18;7.97;;;14.70;60.90;;;;;;5093536;28;20112;-80
2021/03/31 02:42:04;;;;;;;12.75;7.78;;;14.60;60.90;;;;;;5074507;28;20035;-81
2021/03/31 02:44:31;;;;;;;12.02;8.05;;;14.60;60.90;;;;;;5091850;28;20012;-80
2021/03/31 02:47:01;;;;;;;10.50;7.72;;;14.60;61.00;;;;;;5071439;28;20036;-80
2021/03/31 02:49:29;;;;;;;11.40;7.97;;;14.50;61.00;;;;;;5091123;28;20119;-80
2021/03/31 02:51:57;;;;;;;11.38;7.22;;;14.50;61.00;;;;;;5071148;28;20032;-80
2021/03/31 02:54:25;;;;;;;10.18;6.75;;;14.50;61.00;;;;;;5074232;28;20086;-79
2021/03/31 02:56:50;;;;;;;11.40;8.25;;;14.50;61.00;;;;;;5075367;28;20074;-80
2021/03/31 02:59:16;;;;;;;12.25;7.47;;;14.40;61.00;;;;;;5074912;28;20507;-79
2021/03/31 03:01:43;;;;;;;11.73;7.97;;;14.40;61.00;;;;;;5075337;28;20702;-80
2021/03/31 03:04:09;;;;;;;12.27;7.82;;;14.40;61.10;;;;;;5057562;28;20032;-80
2021/03/31 03:06:35;;;;;;;11.90;7.82;;;14.30;61.10;;;;;;5075377;28;20039;-80
2021/03/31 03:09:04;;;;;;;11.30;8.38;;;14.30;61.10;;;;;;5071484;28;20473;-80
2021/03/31 03:11:31;;;;;;;11.63;8.18;;;14.30;61.20;;;;;;5084403;28;20047;-80
2021/03/31 03:13:58;;;;;;;12.43;7.97;;;14.20;61.10;;;;;;5075069;28;20379;-80
2021/03/31 03:16:24;;;;;;;10.27;7.40;;;14.20;61.20;;;;;;5074954;28;20415;-79
2021/03/31 03:18:50;;;;;;;12.23;8.00;;;14.20;61.20;;;;;;5058329;28;20024;-80
2021/03/31 03:21:16;;;;;;;12.70;8.63;;;14.20;61.20;;;;;;5074645;28;20528;-80
2021/03/31 03:23:43;;;;;;;10.23;7.55;;;14.10;61.20;;;;;;5074682;28;20028;-80
2021/03/31 03:26:12;;;;;;;11.13;7.72;;;14.10;61.30;;;;;;5091701;28;20036;-80
2021/03/31 03:28:40;;;;;;;11.32;7.55;;;14.00;61.20;;;;;;5057925;28;20110;-80
2021/03/31 03:31:10;;;;;;;11.27;7.95;;;14.00;61.30;;;;;;5062451;28;20036;-80
2021/03/31 03:33:37;;;;;;;11.70;7.72;;;14.00;61.30;;;;;;5089091;28;20024;-80
2021/03/31 03:36:05;;;;;;;11.32;7.47;;;14.00;61.30;;;;;;5074418;28;20074;-80
2021/03/31 03:38:32;;;;;;;12.13;7.90;;;13.90;61.40;;;;;;5074158;28;20451;-80
2021/03/31 03:41:03;;;;;;;10.02;7.07;;;13.90;61.40;;;;;;5091422;28;20039;-79
2021/03/31 03:43:29;;;;;;;10.73;7.78;;;13.80;61.40;;;;;;5099688;28;20053;-80
2021/03/31 03:45:57;;;;;;;12.88;7.70;;;13.80;61.40;;;;;;5074230;28;20020;-80
2021/03/31 03:48:23;;;;;;;10.57;7.60;;;13.80;61.40;;;;;;5074540;28;20020;-79
2021/03/31 03:50:49;;;;;;;11.88;8.13;;;13.70;61.40;;;;;;5089559;28;20455;-80
2021/03/31 03:53:15;;;;;;;10.68;7.45;;;13.70;61.50;;;;;;5091048;28;20256;-79
2021/03/31 03:55:42;;;;;;;10.85;7.43;;;13.60;61.50;;;;;;5090086;28;20044;-79
2021/03/31 03:58:09;;;;;;;12.30;7.70;;;13.60;61.60;;;;;;5073734;28;20036;-79
2021/03/31 04:00:36;;;;;;;11.68;7.18;;;13.60;61.60;;;;;;5090224;28;20036;-79
2021/03/31 04:03:03;;;;;;;11.52;8.45;;;13.60;61.70;;;;;;5090554;28;20081;-79
2021/03/31 04:05:29;;;;;;;11.38;7.55;;;13.60;61.70;;;;;;5070429;28;20524;-79
2021/03/31 04:07:55;;;;;;;11.35;8.20;;;13.50;61.70;;;;;;5090476;28;20115;-79
2021/03/31 04:10:25;;;;;;;12.38;8.10;;;13.50;61.70;;;;;;5065557;28;20036;-81
2021/03/31 04:12:52;;;;;;;11.65;7.95;;;13.50;61.80;;;;;;5088504;28;20111;-79
2021/03/31 04:15:19;;;;;;;10.95;7.97;;;13.40;61.80;;;;;;5090794;28;20025;-79
2021/03/31 04:17:46;;;;;;;11.63;8.05;;;13.40;61.80;;;;;;5091074;28;20048;-79
2021/03/31 04:20:15;;;;;;;11.20;7.93;;;13.40;61.80;;;;;;5056661;28;20369;-79
2021/03/31 04:22:42;;;;;;;10.98;6.93;;;13.40;61.90;;;;;;5091143;28;20028;-79
2021/03/31 04:25:10;;;;;;;10.77;7.45;;;13.30;61.90;;;;;;5073492;28;20024;-79
2021/03/31 04:27:37;;;;;;;10.68;7.47;;;13.30;61.90;;;;;;5073877;28;20430;-79
2021/03/31 04:30:08;;;;;;;11.18;8.05;;;13.20;61.90;;;;;;5072049;28;20086;-79
2021/03/31 04:32:34;;;;;;;11.68;7.53;;;13.20;61.90;;;;;;5090429;28;20038;-79
2021/03/31 04:35:02;;;;;;;10.90;7.88;;;13.20;61.90;;;;;;5090191;28;20028;-80
2021/03/31 04:37:28;;;;;;;12.25;7.82;;;13.10;61.90;;;;;;5074769;28;20526;-79
2021/03/31 04:39:54;;;;;;;11.20;7.35;;;13.10;61.90;;;;;;5057048;28;20028;-79
2021/03/31 04:42:20;;;;;;;10.70;7.03;;;13.10;62.00;;;;;;5068677;28;20037;-78
2021/03/31 04:44:46;;;;;;;10.60;7.63;;;13.10;62.00;;;;;;5086560;28;20028;-78
2021/03/31 04:47:12;;;;;;;10.32;7.53;;;13.00;62.00;;;;;;5090509;28;20025;-82
2021/03/31 04:49:38;;;;;;;10.80;7.55;;;13.00;62.00;;;;;;5073645;28;20024;-78
2021/03/31 04:52:04;;;;;;;10.43;7.45;;;13.00;62.00;;;;;;5076862;28;20040;-78
2021/03/31 04:54:29;;;;;;;11.55;7.63;;;13.00;62.10;;;;;;5077594;28;20043;-77
2021/03/31 04:56:55;;;;;;;11.35;7.70;;;12.90;62.00;;;;;;5048573;28;20514;-77
2021/03/31 04:59:21;;;;;;;11.68;7.70;;;12.90;62.00;;;;;;5083824;28;20019;-77
2021/03/31 05:01:47;;;;;;;10.90;7.30;;;12.80;62.00;;;;;;5094047;28;20189;-78
2021/03/31 05:04:12;;;;;;;12.05;7.80;;;12.80;62.10;;;;;;5056486;28;20115;-78
2021/03/31 05:06:38;;;;;;;12.95;8.35;;;12.80;62.10;;;;;;5083756;28;20037;-78
2021/03/31 05:09:04;;;;;;;12.75;8.20;;;12.80;62.10;;;;;;5089108;28;20032;-79
2021/03/31 05:11:30;;;;;;;10.85;7.25;;;12.80;62.10;;;;;;5075894;28;20037;-79
2021/03/31 05:13:56;;;;;;;10.90;8.38;;;12.70;62.10;;;;;;5088195;28;20139;-80
2021/03/31 05:16:22;;;;;;;11.13;7.32;;;12.70;62.10;;;;;;5089193;28;20032;-79
2021/03/31 05:18:47;;;;;;;11.95;8.55;;;12.70;62.10;;;;;;5094260;28;20032;-81
2021/03/31 05:21:13;;;;;;;10.25;7.70;;;12.60;62.10;;;;;;5063801;28;20063;-78
2021/03/31 05:23:39;;;;;;;11.23;7.70;;;12.60;62.20;;;;;;5043992;28;20468;-80
2021/03/31 05:26:05;;;;;;;12.82;8.25;;;12.60;62.20;;;;;;5097735;28;20028;-82
2021/03/31 05:28:32;;;;;;;12.15;8.40;;;12.50;62.20;;;;;;5076850;28;20036;-81
2021/03/31 05:30:58;;;;;;;11.05;7.68;;;12.50;62.30;;;;;;5094337;28;20044;-81
2021/03/31 05:33:23;;;;;;;12.05;8.43;;;12.50;62.30;;;;;;5094804;28;20554;-81
2021/03/31 05:35:49;;;;;;;12.65;8.27;;;12.50;62.30;;;;;;5095639;28;20076;-80
2021/03/31 05:38:15;;;;;;;11.55;7.63;;;12.40;62.30;;;;;;5064425;28;20025;-81
2021/03/31 05:40:41;;;;;;;12.15;8.25;;;12.40;62.30;;;;;;5073248;28;20477;-82
2021/03/31 05:43:07;;;;;;;12.15;8.32;;;12.40;62.30;;;;;;5083196;28;20028;-82
2021/03/31 05:45:34;;;;;;;10.43;7.70;;;12.40;62.30;;;;;;5094532;28;20032;-82
2021/03/31 05:48:00;;;;;;;11.60;8.40;;;12.30;62.30;;;;;;5093891;28;20031;-82
2021/03/31 05:50:26;;;;;;;12.02;8.02;;;12.30;62.30;;;;;;5093422;28;20115;-82
2021/03/31 05:52:52;;;;;;;10.27;7.35;;;12.30;62.40;;;;;;5060553;28;20036;-82
2021/03/31 05:55:18;;;;;;;11.15;7.85;;;12.30;62.40;;;;;;5081251;28;20052;-81
2021/03/31 05:57:45;;;;;;;11.82;8.68;;;12.20;62.40;;;;;;5093343;28;20032;-89
2021/03/31 06:00:13;;;;;;;10.07;7.28;;;12.20;62.40;;;;;;5064526;28;20035;-83
2021/03/31 06:02:41;;;;;;;13.10;8.48;;;12.20;62.40;;;;;;5090617;28;20566;-81
2021/03/31 06:05:09;;;;;;;11.77;8.15;;;12.20;62.50;;;;;;5094923;28;20028;-80
2021/03/31 06:07:35;;;;;;;11.13;7.93;;;12.20;63.20;;;;;;5090099;28;20024;-82
2021/03/31 06:10:17;;;;;;;12.23;8.20;;;12.10;62.50;;;;;;5075023;28;20039;-82
2021/03/31 06:12:54;;;;;;;10.27;7.50;;;12.10;62.60;;;;;;5092586;28;20028;-82
2021/03/31 06:15:32;;;;;;;12.43;8.68;;;12.10;62.60;;;;;;5081982;28;20024;-82
2021/03/31 06:17:59;;;;;;;10.25;7.47;;;12.00;62.60;;;;;;5089203;28;20382;-81
2021/03/31 06:20:57;;;;;;;11.45;7.72;;;12.00;62.60;;;;;;5086546;28;20485;-82
2021/03/31 06:26:26;;;;;;;11.85;8.05;;;12.00;62.80;;;;;;5094777;28;20046;-82
2021/03/31 06:29:22;;;;;;;11.75;7.97;;;12.00;62.80;;;;;;5095209;28;20043;-82
2021/03/31 06:31:49;;;;;;;9.85;7.78;;;12.00;62.90;;;;;;5071893;28;20052;-82
2021/03/31 06:34:24;;;;;;;10.48;7.47;;;11.90;62.80;;;;;;5092577;28;20032;-82
2021/03/31 06:36:59;;;;;;;11.02;8.30;;;11.90;62.90;;;;;;5077273;28;20110;-80
2021/03/31 06:39:34;;;;;;;10.48;7.75;;;11.90;62.90;;;;;;5094245;28;20103;-81
2021/03/31 06:42:02;;;;;;;11.85;7.90;;;11.90;63.00;;;;;;5081132;28;20032;-81
2021/03/31 06:47:39;;;;;;;11.07;7.50;;;11.80;63.10;;;;;;5092770;28;20097;-81
2021/03/31 06:50:12;;;;;;;10.45;7.43;;;11.80;63.00;;;;;;5092311;28;20161;-83
2021/03/31 06:52:54;;;;;;;12.80;8.52;;;11.80;63.10;;;;;;5091218;28;20035;-82
2021/03/31 06:55:20;;;;;;;10.75;8.20;;;11.80;63.20;;;;;;5068156;28;20063;-83
2021/03/31 06:57:57;;;;;;;11.38;7.65;;;11.80;63.10;;;;;;5076763;28;20028;-84
2021/03/31 07:00:31;;;;;;;10.55;7.75;;;11.80;63.30;;;;;;5093485;28;20036;-85
2021/03/31 07:03:02;;;;;;;11.68;7.65;;;11.80;63.20;;;;;;5082194;28;20028;-83
2021/03/31 07:05:33;;;;;;;10.65;7.63;;;11.80;63.20;;;;;;5075335;28;20059;-82
2021/03/31 07:08:07;;;;;;;10.90;7.85;;;11.80;63.30;;;;;;5092716;28;20043;-83
2021/03/31 07:10:48;;;;;;;11.60;8.13;;;11.80;63.30;;;;;;5076105;28;20848;-83
2021/03/31 07:13:35;;;;;;;11.55;7.90;;;11.80;63.40;;;;;;5104402;28;20027;-82
2021/03/31 07:16:05;;;;;;;9.68;7.07;;;11.70;63.40;;;;;;5082820;28;20429;-82
2021/03/31 07:18:33;;;;;;;10.85;7.57;;;11.80;63.40;;;;;;5092365;28;20021;-82
2021/03/31 07:20:59;;;;;;;10.55;7.90;;;11.80;63.40;;;;;;5094242;28;20376;-83
2021/03/31 07:23:26;;;;;;;11.25;7.97;;;11.80;63.40;;;;;;5091812;28;20127;-83
2021/03/31 07:25:53;;;;;;;11.05;7.88;;;11.80;63.50;;;;;;5079684;28;20112;-83
2021/03/31 07:28:29;;;;;;;12.25;7.97;;;11.80;63.40;;;;;;5088779;28;20518;-82
2021/03/31 07:30:54;;;;;;;11.38;7.80;;;11.80;63.50;;;;;;5092810;28;20043;-82
2021/03/31 07:33:24;;;;;;;10.52;7.70;;;11.80;63.40;;;;;;5076420;28;20024;-82
2021/03/31 07:35:50;;;;;;;10.57;7.90;;;11.80;63.50;;;;;;5094940;28;20021;-83
2021/03/31 07:38:18;;;;;;;11.20;7.60;;;11.80;63.40;;;;;;5093688;28;20430;-83
2021/03/31 07:40:46;;;;;;;11.07;7.75;;;11.80;63.40;;;;;;5076818;28;20168;-82
2021/03/31 07:43:30;;;;;;;10.52;7.50;;;11.80;63.50;;;;;;5088246;28;20046;-83
2021/03/31 07:46:16;;;;;;;10.50;6.82;;;11.80;63.50;;;;;;5076807;28;20023;-83
2021/03/31 07:48:43;;;;;;;11.00;7.65;;;11.80;63.40;;;;;;5094685;28;20032;-83
2021/03/31 07:51:27;;;;;;;9.50;6.95;;;11.90;63.50;;;;;;5075443;28;20365;-82
2021/03/31 07:53:55;;;;;;;11.60;7.20;;;11.90;63.60;;;;;;5092240;28;20028;-82
2021/03/31 07:56:24;;;;;;;10.48;7.30;;;11.90;63.50;;;;;;5093265;28;20068;-83
2021/03/31 07:59:09;;;;;;;10.77;7.35;;;11.90;63.60;;;;;;5076863;28;20491;-82
2021/03/31 08:01:46;;;;;;;11.18;7.57;;;11.90;63.70;;;;;;5081676;28;20127;-83
2021/03/31 08:04:13;;;;;;;9.85;7.25;;;11.90;63.60;;;;;;5088351;28;20035;-83
2021/03/31 08:06:40;;;;;;;9.63;7.22;;;11.90;63.50;;;;;;5089666;28;20251;-83
2021/03/31 08:09:18;;;;;;;9.32;7.07;;;11.90;63.60;;;;;;5093488;28;20111;-83
2021/03/31 08:11:52;;;;;;;9.57;7.10;;;12.00;63.70;;;;;;5090036;28;20168;-83
2021/03/31 08:14:35;;;;;;;9.93;7.78;;;12.00;63.70;;;;;;5075162;28;20027;-83
2021/03/31 08:17:07;;;;;;;10.82;7.38;;;12.00;63.80;;;;;;5083467;28;20051;-83
2021/03/31 08:19:40;;;;;;;10.50;7.45;;;12.00;63.70;;;;;;5097919;28;20024;-82
2021/03/31 08:22:24;;;;;;;10.20;7.75;;;12.00;63.70;;;;;;5085292;28;20056;-82
2021/03/31 08:24:55;;;;;;;10.68;7.15;;;12.10;63.90;;;;;;5089951;28;20067;-84
2021/03/31 08:27:21;;;;;;;10.50;7.93;;;12.10;63.80;;;;;;5089776;28;20030;-80
2021/03/31 08:29:53;;;;;;;9.50;7.25;;;12.10;63.80;;;;;;5092382;28;20020;-85
2021/03/31 08:32:21;;;;;;;10.00;7.03;;;12.20;63.90;;;;;;5091685;28;20036;-83
2021/03/31 08:34:47;;;;;;;10.95;7.43;;;12.20;63.90;;;;;;5055053;28;20116;-82
2021/03/31 08:37:23;;;;;;;10.82;7.45;;;12.20;63.90;;;;;;5083833;28;20032;-82
2021/03/31 08:39:50;;;;;;;10.30;6.95;;;12.20;64.00;;;;;;5095012;28;20428;-81
2021/03/31 08:42:16;;;;;;;9.77;7.53;;;12.30;64.00;;;;;;5085864;28;20076;-82
2021/03/31 08:44:51;;;;;;;10.60;7.53;;;12.30;64.00;;;;;;5065451;28;20032;-81
2021/03/31 08:47:26;;;;;;;11.35;8.27;;;12.30;64.10;;;;;;5075682;28;20428;-82
2021/03/31 08:50:01;;;;;;;9.68;7.13;;;12.40;64.10;;;;;;5057984;28;20097;-82
2021/03/31 08:52:33;;;;;;;10.93;7.78;;;12.40;64.00;;;;;;5086132;28;20033;-82
2021/03/31 08:55:04;;;;;;;11.73;7.38;;;12.50;64.10;;;;;;5066522;28;20052;-82
2021/03/31 08:57:30;;;;;;;10.55;7.90;;;12.50;64.10;;;;;;5086854;28;20430;-81
2021/03/31 08:59:58;;;;;;;9.52;7.32;;;12.60;64.00;;;;;;5071157;28;20492;-81
2021/03/31 09:02:29;;;;;;;9.57;7.57;;;12.60;64.00;;;;;;5068578;28;20043;-81
2021/03/31 09:04:57;;;;;;;11.02;7.10;;;12.70;64.00;;;;;;5088017;28;20058;-81
2021/03/31 09:07:23;;;;;;;9.40;7.35;;;12.70;63.90;;;;;;5087173;28;20032;-81
2021/03/31 09:09:49;;;;;;;10.30;7.78;;;12.80;63.90;;;;;;5070412;28;20105;-82
2021/03/31 09:12:23;;;;;;;12.02;7.35;;;12.90;63.90;;;;;;5082613;28;20461;-82
2021/03/31 09:14:53;;;;;;;9.88;7.53;;;13.00;64.00;;;;;;5090997;28;20016;-82
2021/03/31 09:17:27;;;;;;;10.68;7.43;;;13.10;64.00;;;;;;5081511;28;20417;-82
2021/03/31 09:19:56;;;;;;;11.27;7.57;;;13.10;64.10;;;;;;5107066;28;20032;-82
2021/03/31 09:22:25;;;;;;;9.45;7.00;;;13.20;64.10;;;;;;5092017;28;20417;-82
2021/03/31 09:24:53;;;;;;;9.55;7.10;;;13.30;64.20;;;;;;5073849;28;20024;-82
2021/03/31 09:27:29;;;;;;;10.13;7.72;;;13.40;64.30;;;;;;5082949;28;20107;-82
2021/03/31 09:29:59;;;;;;;8.95;7.13;;;13.50;64.40;;;;;;5068329;28;20427;-80
2021/03/31 09:32:33;;;;;;;9.80;7.05;;;13.60;64.40;;;;;;5070905;28;20036;-81
2021/03/31 09:35:15;;;;;;;9.57;7.63;;;13.70;64.50;;;;;;5071942;28;20028;-82
2021/03/31 09:37:43;;;;;;;9.35;7.40;;;13.80;64.80;;;;;;5076183;28;20028;-82
2021/03/31 09:40:10;;;;;;;9.50;7.03;;;13.90;64.70;;;;;;5094369;28;20430;-83
2021/03/31 09:42:38;;;;;;;9.50;7.47;;;14.00;64.90;;;;;;5094165;28;20078;-82
2021/03/31 09:45:09;;;;;;;9.65;7.90;;;14.10;65.00;;;;;;5094093;28;20016;-83
2021/03/31 09:47:38;;;;;;;9.75;7.63;;;14.20;65.10;;;;;;5093987;28;20060;-82
2021/03/31 09:50:11;;;;;;;10.02;7.70;;;14.40;65.30;;;;;;5078032;28;20081;-82
2021/03/31 09:52:38;;;;;;;11.05;8.48;;;14.50;65.50;;;;;;5094196;28;20036;-83
2021/03/31 09:55:08;;;;;;;11.57;7.85;;;14.60;65.40;;;;;;5080956;28;20047;-82
2021/03/31 09:57:39;;;;;;;10.90;8.20;;;14.70;65.60;;;;;;5078871;28;20074;-82
2021/03/31 10:00:11;;;;;;;10.57;8.18;;;14.80;65.80;;;;;;5082295;28;20029;-82
2021/03/31 10:02:42;;;;;;;10.52;7.47;;;14.90;65.80;;;;;;5073644;28;20036;-82
2021/03/31 10:05:12;;;;;;;10.63;8.00;;;15.10;65.90;;;;;;5093090;28;20021;-80
2021/03/31 10:07:38;;;;;;;10.57;8.02;;;15.20;66.00;;;;;;5059771;28;20061;-83
2021/03/31 10:10:06;;;;;;;11.20;8.75;;;15.30;66.10;;;;;;5059631;28;20457;-81
2021/03/31 10:12:34;;;;;;;10.35;8.00;;;15.40;66.30;;;;;;5090149;28;20037;-82
2021/03/31 10:15:05;;;;;;;11.25;7.93;;;15.60;66.40;;;;;;5089111;28;20115;-83
2021/03/31 10:17:32;;;;;;;11.57;8.27;;;15.70;66.60;;;;;;5077494;28;20050;-83
2021/03/31 10:20:17;;;;;;;9.52;7.78;;;15.80;66.70;;;;;;5068028;28;20029;-84
2021/03/31 10:22:42;;;;;;;10.20;8.33;;;15.90;67.00;;;;;;5092304;28;20036;-84
2021/03/31 10:25:25;;;;;;;9.95;8.07;;;16.10;66.90;;;;;;5057938;28;20374;-86
2021/03/31 10:27:51;;;;;;;10.15;7.88;;;16.20;67.30;;;;;;5082814;28;20082;-85
2021/03/31 10:30:29;;;;;;;12.27;8.57;;;16.30;67.10;;;;;;5059941;28;20028;-82
2021/03/31 10:32:55;;;;;;;10.63;7.93;;;16.40;67.50;;;;;;5080855;28;20028;-83
2021/03/31 10:35:53;;;;;;;11.77;8.50;;;16.60;67.40;;;;;;5077879;28;20012;-83
2021/03/31 10:39:10;;;;;;;11.18;8.40;;;16.70;67.80;;;;;;5093815;28;20028;-91
2021/03/31 10:50:55;;;;;;;9.45;7.35;;;17.40;67.80;;;;;;5077791;28;20471;-83
2021/03/31 10:53:38;;;;;;;11.60;8.68;;;17.50;67.90;;;;;;5094620;28;20435;-83
2021/03/31 10:56:04;;;;;;;11.77;8.40;;;17.60;68.20;;;;;;5089727;28;20036;-83
2021/03/31 10:58:30;;;;;;;10.90;8.32;;;17.80;68.20;;;;;;5069310;28;20491;-82
2021/03/31 11:00:56;;;;;;;10.80;8.30;;;17.90;68.40;;;;;;5093534;28;20032;-85
2021/03/31 11:03:26;;;;;;;11.75;8.48;;;18.10;68.50;;;;;;5074805;28;20031;-84
2021/03/31 11:05:53;;;;;;;11.02;8.55;;;18.20;68.90;;;;;;5058946;28;20032;-87
2021/03/31 11:08:20;;;;;;;10.32;8.27;;;18.30;68.70;;;;;;5091631;28;20020;-83
2021/03/31 11:10:46;;;;;;;11.23;8.55;;;18.40;68.80;;;;;;5093546;28;20072;-84
2021/03/31 11:13:12;;;;;;;10.18;8.32;;;18.60;69.00;;;;;;5092632;28;20036;-85
2021/03/31 11:15:38;;;;;;;10.75;8.35;;;18.70;69.00;;;;;;5093186;28;20024;-84
2021/03/31 11:26:07;;;;;;;11.07;8.55;;;19.30;69.40;;;;;;5073682;28;20036;-84
2021/03/31 11:28:36;;;;;;;11.10;7.95;;;19.40;69.40;;;;;;5095362;27;20473;-84
2021/03/31 11:31:03;;;;;;;10.82;8.32;;;19.50;69.60;;;;;;5073741;28;20464;-83
2021/03/31 11:33:28;;;;;;;10.02;8.73;;;19.70;69.80;;;;;;5084350;28;20028;-84
2021/03/31 11:35:54;;;;;;;11.40;8.68;;;19.80;69.90;;;;;;5073194;28;20055;-90
2021/03/31 11:38:20;;;;;;;11.27;9.13;;;19.90;70.00;;;;;;5077831;28;20028;-82
2021/03/31 11:40:46;;;;;;;14.57;10.18;;;20.00;67.80;;;;;;5074685;28;20057;-80
2021/03/31 11:43:14;;;;;;;12.90;9.88;;;20.10;65.00;;;;;;5079039;28;20054;-84
2021/03/31 11:45:40;;;;;;;13.85;10.75;;;20.30;62.80;;;;;;5090883;28;20020;-82
2021/03/31 11:48:06;;;;;;;12.23;9.43;;;20.50;60.80;;;;;;5074521;28;20020;-80
2021/03/31 11:50:32;;;;;;;14.43;9.65;;;20.60;59.60;;;;;;5074119;28;20032;-81
2021/03/31 11:52:58;;;;;;;12.23;9.32;;;20.80;59.00;;;;;;5082283;28;20095;-82
2021/03/31 11:55:24;;;;;;;13.95;8.98;;;20.90;58.70;;;;;;5091537;28;20460;-82
2021/03/31 11:57:50;;;;;;;11.90;9.25;;;21.00;58.50;;;;;;5076009;28;20392;-81
2021/03/31 12:00:17;;;;;;;13.35;9.50;;;21.10;58.00;;;;;;5074360;28;20365;-81
2021/03/31 12:02:44;;;;;;;14.45;9.98;;;21.20;57.60;;;;;;5087664;28;20028;-81
2021/03/31 12:05:10;;;;;;;12.57;9.63;;;21.30;57.20;;;;;;5091273;28;20012;-81
2021/03/31 12:07:36;;;;;;;13.23;9.40;;;21.50;56.60;;;;;;5074375;28;20032;-81
2021/03/31 12:10:07;;;;;;;13.30;9.80;;;21.50;56.30;;;;;;5084920;28;20361;-80
2021/03/31 12:12:34;;;;;;;13.25;8.63;;;21.60;55.60;;;;;;5071548;28;20036;-80
2021/03/31 12:15:00;;;;;;;12.50;9.27;;;21.70;55.10;;;;;;5123820;27;20027;-81
2021/03/31 12:17:26;;;;;;;12.63;9.30;;;21.80;55.00;;;;;;5092334;28;20036;-80
2021/03/31 12:19:51;;;;;;;13.32;9.43;;;21.90;54.50;;;;;;5090744;28;20032;-80
2021/03/31 12:22:17;;;;;;;11.80;9.02;;;22.00;54.30;;;;;;5074530;28;20543;-80
2021/03/31 12:24:43;;;;;;;15.32;9.75;;;22.10;54.10;;;;;;5090545;28;20036;-82
2021/03/31 12:27:09;;;;;;;11.93;9.32;;;22.20;53.80;;;;;;5057583;28;20074;-83
2021/03/31 12:29:38;;;;;;;12.10;9.23;;;22.20;53.50;;;;;;5091158;28;20025;-82
2021/03/31 12:32:05;;;;;;;13.32;9.63;;;22.30;53.70;;;;;;5071369;28;20036;-83
2021/03/31 12:34:32;;;;;;;14.45;10.68;;;22.40;53.40;;;;;;5065684;28;20526;-83
2021/03/31 12:36:58;;;;;;;13.25;9.95;;;22.40;53.00;;;;;;5074084;28;20028;-84
2021/03/31 12:39:24;;;;;;;12.55;9.10;;;22.50;52.90;;;;;;5091249;28;20028;-84
2021/03/31 12:41:50;;;;;;;13.13;9.25;;;22.60;52.70;;;;;;5090823;28;20119;-83
2021/03/31 12:44:15;;;;;;;12.32;9.02;;;22.60;52.40;;;;;;5091173;28;20035;-83
2021/03/31 12:46:42;;;;;;;12.95;10.57;;;22.70;52.30;;;;;;5074086;28;20039;-82
2021/03/31 12:49:08;;;;;;;12.65;9.35;;;22.70;52.20;;;;;;5042240;28;20372;-83
2021/03/31 12:51:35;;;;;;;14.38;10.30;;;22.80;52.00;;;;;;5086026;28;20051;-82
2021/03/31 12:54:07;;;;;;;13.60;9.48;;;22.90;51.90;;;;;;5078997;28;20035;-81
2021/03/31 12:56:33;;;;;;;11.77;9.38;;;22.90;51.60;;;;;;5073851;28;20060;-82
2021/03/31 12:58:58;;;;;;;12.57;9.40;;;23.00;51.80;;;;;;5103770;28;20089;-79
2021/03/31 13:01:26;;;;;;;11.88;9.18;;;23.10;51.70;;;;;;5091030;28;20495;-82
2021/03/31 13:03:52;;;;;;;11.98;8.85;;;23.10;51.50;;;;;;5090647;28;20032;-82
2021/03/31 13:06:19;;;;;;;12.52;9.63;;;23.20;51.60;;;;;;5091788;28;20106;-82
2021/03/31 13:08:48;;;;;;;12.18;9.10;;;23.20;51.40;;;;;;5077464;28;20051;-83
2021/03/31 13:11:14;;;;;;;12.88;9.52;;;23.30;51.40;;;;;;5090680;28;20660;-83
2021/03/31 13:16:17;;;;;;;14.52;9.90;;;23.40;51.20;;;;;;5072672;28;20089;-84